createdAt,value
2019-05-18T00:00:31.241Z,504.38
2019-05-18T00:02:57.306Z,496.48
2019-05-18T00:05:23.355Z,498.93
2019-05-18T00:07:49.401Z,514.37
2019-05-18T00:10:16.163Z,553.92
2019-05-18T00:12:42.222Z,523.00
2019-05-18T00:15:08.858Z,507.90
2019-05-18T00:17:34.918Z,491.95
2019-05-18T00:20:01.394Z,498.52
2019-05-18T00:22:27.536Z,491.85
2019-05-18T00:24:53.640Z,543.80
2019-05-18T00:27:19.693Z,515.17
2019-05-18T00:29:45.741Z,539.10
2019-05-18T00:32:11.826Z,532.85
2019-05-18T00:34:37.961Z,495.30
2019-05-18T00:37:04.082Z,492.45
2019-05-18T00:39:30.198Z,604.23
2019-05-18T00:41:56.335Z,483.20
2019-05-18T00:44:22.389Z,504.90
2019-05-18T00:46:48.457Z,542.27
2019-05-18T00:49:14.494Z,506.25
2019-05-18T00:51:40.570Z,503.20
2019-05-18T00:54:06.604Z,503.88
2019-05-18T00:56:32.652Z,517.98
2019-05-18T00:58:58.754Z,490.80
2019-05-18T01:01:24.815Z,504.92
2019-05-18T01:03:51.075Z,554.95
2019-05-18T01:06:17.120Z,510.48
2019-05-18T01:08:43.162Z,568.55
2019-05-18T01:11:09.221Z,519.28
2019-05-18T01:13:35.263Z,528.08
2019-05-18T01:16:01.620Z,516.48
2019-05-18T01:18:27.673Z,553.25
2019-05-18T01:20:53.822Z,600.70
2019-05-18T01:23:19.872Z,532.35
2019-05-18T01:25:45.908Z,531.27
2019-05-18T01:28:11.999Z,441.60
2019-05-18T01:30:38.128Z,536.42
2019-05-18T01:33:04.205Z,533.27
2019-05-18T01:35:30.277Z,540.20
2019-05-18T01:37:56.409Z,546.98
2019-05-18T01:40:22.464Z,551.70
2019-05-18T01:42:48.513Z,519.90
2019-05-18T01:45:17.296Z,515.85
2019-05-18T01:47:43.043Z,521.15
2019-05-18T01:50:09.188Z,531.13
2019-05-18T01:52:35.237Z,430.80
2019-05-18T01:55:02.011Z,518.97
2019-05-18T01:57:28.143Z,561.52
2019-05-18T01:59:54.194Z,549.95
2019-05-18T02:02:20.273Z,530.37
2019-05-18T02:04:46.317Z,524.27
2019-05-18T02:07:12.356Z,530.40
2019-05-18T02:09:38.425Z,628.65
2019-05-18T02:12:04.471Z,520.90
2019-05-18T02:14:30.521Z,514.20
2019-05-18T02:16:56.587Z,517.80
2019-05-18T02:19:24.848Z,533.58
2019-05-18T02:21:50.592Z,519.97
2019-05-18T02:24:16.624Z,518.05
2019-05-18T02:26:42.675Z,508.60
2019-05-18T02:29:08.749Z,516.02
2019-05-18T02:31:34.792Z,519.10
2019-05-18T02:34:00.865Z,523.78
2019-05-18T02:36:26.905Z,528.10
2019-05-18T02:38:52.955Z,528.88
2019-05-18T02:41:19.106Z,528.48
2019-05-18T02:43:45.152Z,520.85
2019-05-18T02:46:11.209Z,536.75
2019-05-18T02:48:48.449Z,502.85
2019-05-18T02:51:05.917Z,518.27
2019-05-18T02:53:31.953Z,525.48
2019-05-18T02:55:58.000Z,513.92
2019-05-18T02:58:24.062Z,518.85
2019-05-18T03:00:50.127Z,534.25
2019-05-18T03:03:16.181Z,522.98
2019-05-18T03:05:42.928Z,532.92
2019-05-18T03:08:08.984Z,541.33
2019-05-18T03:10:35.121Z,542.63
2019-05-18T03:13:01.183Z,537.80
2019-05-18T03:15:27.225Z,529.72
2019-05-18T03:17:53.302Z,526.35
2019-05-18T03:20:19.345Z,541.88
2019-05-18T03:22:45.702Z,556.60
2019-05-18T03:25:12.262Z,549.30
2019-05-18T03:27:38.308Z,529.65
2019-05-18T03:30:05.370Z,537.40
2019-05-18T03:32:31.433Z,538.37
2019-05-18T03:34:57.835Z,596.05
2019-05-18T03:37:24.050Z,527.83
2019-05-18T03:39:50.107Z,527.67
2019-05-18T03:42:16.172Z,524.50
2019-05-18T03:44:42.321Z,530.03
2019-05-18T03:47:08.386Z,528.55
2019-05-18T03:49:34.422Z,518.25
2019-05-18T03:52:00.499Z,542.05
2019-05-18T03:54:26.546Z,553.10
2019-05-18T03:56:52.589Z,522.02
2019-05-18T03:59:18.642Z,522.70
2019-05-18T04:01:44.694Z,521.42
2019-05-18T04:04:10.757Z,513.42
2019-05-18T04:06:36.806Z,524.73
2019-05-18T04:09:04.548Z,522.60
2019-05-18T04:11:30.609Z,517.22
2019-05-18T04:13:56.646Z,534.03
2019-05-18T04:16:22.722Z,522.40
2019-05-18T04:18:48.758Z,541.85
2019-05-18T04:21:14.805Z,515.02
2019-05-18T04:23:40.870Z,542.12
2019-05-18T04:26:06.921Z,539.35
2019-05-18T04:28:32.974Z,520.90
2019-05-18T04:30:59.038Z,504.75
2019-05-18T04:33:25.098Z,534.00
2019-05-18T04:35:51.139Z,536.05
2019-05-18T04:38:17.191Z,511.25
2019-05-18T04:40:43.348Z,532.27
2019-05-18T04:43:09.482Z,506.40
2019-05-18T04:45:35.540Z,519.92
2019-05-18T04:48:01.607Z,533.60
2019-05-18T04:50:27.646Z,514.40
2019-05-18T04:52:53.725Z,535.75
2019-05-18T04:55:19.795Z,524.90
2019-05-18T04:57:45.891Z,514.02
2019-05-18T05:00:12.414Z,559.22
2019-05-18T05:02:38.609Z,540.55
2019-05-18T05:05:05.224Z,534.58
2019-05-18T05:07:31.385Z,525.15
2019-05-18T05:09:57.458Z,451.13
2019-05-18T05:12:23.493Z,527.02
2019-05-18T05:14:49.560Z,528.00
2019-05-18T05:17:15.596Z,542.75
2019-05-18T05:19:41.657Z,535.65
2019-05-18T05:22:07.698Z,541.48
2019-05-18T05:24:33.749Z,645.15
2019-05-18T05:26:59.788Z,541.48
2019-05-18T05:29:25.857Z,524.90
2019-05-18T05:31:51.994Z,526.22
2019-05-18T05:34:18.043Z,548.90
2019-05-18T05:36:44.084Z,590.05
2019-05-18T05:39:10.153Z,527.08
2019-05-18T05:41:36.196Z,525.12
2019-05-18T05:44:02.267Z,550.72
2019-05-18T05:46:28.311Z,533.48
2019-05-18T05:48:54.365Z,531.02
2019-05-18T05:51:21.321Z,537.55
2019-05-18T05:53:47.382Z,547.85
2019-05-18T05:56:13.525Z,569.02
2019-05-18T05:58:39.560Z,531.15
2019-05-18T06:01:05.624Z,532.83
2019-05-18T06:03:31.721Z,537.98
2019-05-18T06:05:57.778Z,561.52
2019-05-18T06:08:23.825Z,548.05
2019-05-18T06:10:49.872Z,544.97
2019-05-18T06:13:15.941Z,572.37
2019-05-18T06:15:41.995Z,557.12
2019-05-18T06:18:08.059Z,539.52
2019-05-18T06:20:34.098Z,577.23
2019-05-18T06:23:00.251Z,576.90
2019-05-18T06:25:26.311Z,587.38
2019-05-18T06:27:52.362Z,603.73
2019-05-18T06:30:18.839Z,585.20
2019-05-18T06:32:44.885Z,608.33
2019-05-18T06:35:11.330Z,641.35
2019-05-18T06:37:37.391Z,590.75
2019-05-18T06:40:05.428Z,573.23
2019-05-18T06:42:31.505Z,597.48
2019-05-18T06:44:57.572Z,583.85
2019-05-18T06:47:23.620Z,588.45
2019-05-18T06:49:49.681Z,611.30
2019-05-18T06:52:15.729Z,607.70
2019-05-18T06:54:41.790Z,698.73
2019-05-18T06:57:09.532Z,577.55
2019-05-18T06:59:36.100Z,585.52
2019-05-18T07:02:02.146Z,652.78
2019-05-18T07:04:28.192Z,606.52
2019-05-18T07:06:54.238Z,592.63
2019-05-18T07:09:20.298Z,600.30
2019-05-18T07:11:46.436Z,595.95
2019-05-18T07:14:24.969Z,630.30
2019-05-18T07:16:40.427Z,600.60
2019-05-18T07:19:06.473Z,610.42
2019-05-18T07:21:32.535Z,595.55
2019-05-18T07:24:01.377Z,615.73
2019-05-18T07:26:27.505Z,604.55
2019-05-18T07:28:53.561Z,613.48
2019-05-18T07:31:19.849Z,626.73
2019-05-18T07:33:45.977Z,594.02
2019-05-18T07:36:12.036Z,592.35
2019-05-18T07:38:38.080Z,617.42
2019-05-18T07:41:04.131Z,621.53
2019-05-18T07:43:30.173Z,612.38
2019-05-18T07:45:56.238Z,620.17
2019-05-18T07:48:22.273Z,602.13
2019-05-18T07:50:48.337Z,599.67
2019-05-18T07:53:14.383Z,625.00
2019-05-18T07:55:40.460Z,652.30
2019-05-18T07:58:06.503Z,589.70
2019-05-18T08:00:32.560Z,611.38
2019-05-18T08:02:58.706Z,676.15
2019-05-18T08:05:24.770Z,602.33
2019-05-18T08:07:50.829Z,622.33
2019-05-18T08:10:34.732Z,646.27
2019-05-18T08:13:00.782Z,615.42
2019-05-18T08:15:27.053Z,616.20
2019-05-18T08:17:53.102Z,654.65
2019-05-18T08:20:19.154Z,635.20
2019-05-18T08:22:45.211Z,629.77
2019-05-18T08:25:11.276Z,650.12
2019-05-18T08:27:37.323Z,595.27
2019-05-18T08:30:04.774Z,657.55
2019-05-18T08:32:30.857Z,705.70
2019-05-18T08:34:57.014Z,634.33
2019-05-18T08:37:23.064Z,639.50
2019-05-18T08:39:49.129Z,708.80
2019-05-18T08:42:15.182Z,616.45
2019-05-18T08:44:41.220Z,606.60
2019-05-18T08:47:07.286Z,610.40
2019-05-18T08:49:33.341Z,648.67
2019-05-18T08:52:07.857Z,709.55
2019-05-18T08:54:27.344Z,641.27
2019-05-18T08:56:53.406Z,659.77
2019-05-18T08:59:19.444Z,644.00
2019-05-18T09:01:45.491Z,657.05
2019-05-18T09:04:11.569Z,645.52
2019-05-18T09:06:37.603Z,626.73
2019-05-18T09:09:04.960Z,644.92
2019-05-18T09:11:31.006Z,674.00
2019-05-18T09:13:57.074Z,692.08
2019-05-18T09:16:23.117Z,702.13
2019-05-18T09:18:49.160Z,678.48
2019-05-18T09:21:15.237Z,658.23
2019-05-18T09:23:41.283Z,656.58
2019-05-18T09:26:07.333Z,711.33
2019-05-18T09:28:33.369Z,645.20
2019-05-18T09:30:59.448Z,656.30
2019-05-18T09:33:25.584Z,658.92
2019-05-18T09:35:51.628Z,685.92
2019-05-18T09:38:17.726Z,670.00
2019-05-18T09:40:43.833Z,626.20
2019-05-18T09:43:09.900Z,652.47
2019-05-18T09:45:35.945Z,633.10
2019-05-18T09:48:02.203Z,621.98
2019-05-18T09:50:28.363Z,663.22
2019-05-18T09:52:54.426Z,622.80
2019-05-18T09:55:20.612Z,670.92
2019-05-18T09:57:46.653Z,648.42
2019-05-18T10:00:13.617Z,658.35
2019-05-18T10:02:39.696Z,659.95
2019-05-18T10:05:06.266Z,689.10
2019-05-18T10:07:32.308Z,682.77
2019-05-18T10:09:58.344Z,724.08
2019-05-18T10:12:24.826Z,667.75
2019-05-18T10:14:51.162Z,679.17
2019-05-18T10:17:17.224Z,678.65
2019-05-18T10:19:43.283Z,660.52
2019-05-18T10:22:09.333Z,677.10
2019-05-18T10:24:35.486Z,707.95
2019-05-18T10:27:01.543Z,689.05
2019-05-18T10:29:27.601Z,653.95
2019-05-18T10:31:53.664Z,647.98
2019-05-18T10:34:19.704Z,640.05
2019-05-18T10:36:45.761Z,647.00
2019-05-18T10:39:11.805Z,666.60
2019-05-18T10:41:37.866Z,634.70
2019-05-18T10:44:04.022Z,661.62
2019-05-18T10:46:30.086Z,616.48
2019-05-18T10:48:56.141Z,642.87
2019-05-18T10:51:22.211Z,622.35
2019-05-18T10:53:48.244Z,674.12
2019-05-18T10:56:14.296Z,637.33
2019-05-18T10:58:40.361Z,604.90
2019-05-18T11:01:06.510Z,624.60
2019-05-18T11:03:32.552Z,657.17
2019-05-18T11:05:58.624Z,610.05
2019-05-18T11:08:24.683Z,653.15
2019-05-18T11:10:50.804Z,620.77
2019-05-18T11:13:17.442Z,625.92
2019-05-18T11:15:43.620Z,619.85
2019-05-18T11:18:09.669Z,623.70
2019-05-18T11:20:35.741Z,614.40
2019-05-18T11:23:01.779Z,744.88
2019-05-18T11:25:27.823Z,623.37
2019-05-18T11:27:53.899Z,630.75
2019-05-18T11:30:20.456Z,657.12
2019-05-18T11:32:46.515Z,606.78
2019-05-18T11:35:13.056Z,605.98
2019-05-18T11:37:39.130Z,600.72
2019-05-18T11:40:06.079Z,616.33
2019-05-18T11:42:32.125Z,594.00
2019-05-18T11:44:58.180Z,614.23
2019-05-18T11:47:24.241Z,596.72
2019-05-18T11:49:50.351Z,609.50
2019-05-18T11:52:16.491Z,621.55
2019-05-18T11:54:42.588Z,652.02
2019-05-18T11:57:08.745Z,618.48
2019-05-18T11:59:34.896Z,636.20
2019-05-18T12:02:00.950Z,619.80
2019-05-18T12:04:27.015Z,613.45
2019-05-18T12:06:53.130Z,629.23
2019-05-18T12:09:19.256Z,643.27
2019-05-18T12:11:45.385Z,644.15
2019-05-18T12:14:11.441Z,640.00
2019-05-18T12:16:37.511Z,653.88
2019-05-18T12:19:03.564Z,677.52
2019-05-18T12:21:29.618Z,653.20
2019-05-18T12:23:55.685Z,617.50
2019-05-18T12:26:21.737Z,624.67
2019-05-18T12:28:47.797Z,635.30
2019-05-18T12:31:13.866Z,662.67
2019-05-18T12:33:40.008Z,639.95
2019-05-18T12:36:06.861Z,677.23
2019-05-18T12:38:33.017Z,663.60
2019-05-18T12:40:59.065Z,668.58
2019-05-18T12:43:25.879Z,647.80
2019-05-18T12:45:51.929Z,636.47
2019-05-18T12:48:18.177Z,644.10
2019-05-18T12:50:44.249Z,676.77
2019-05-18T12:53:10.303Z,680.10
2019-05-18T12:55:36.381Z,661.83
2019-05-18T12:58:02.735Z,672.30
2019-05-18T13:00:29.210Z,658.58
2019-05-18T13:02:55.266Z,676.08
2019-05-18T13:05:21.318Z,719.55
2019-05-18T13:07:47.369Z,685.20
2019-05-18T13:10:16.155Z,655.65
2019-05-18T13:12:42.189Z,655.03
2019-05-18T13:15:09.645Z,671.75
2019-05-18T13:17:35.906Z,672.48
2019-05-18T13:20:06.727Z,677.28
2019-05-18T13:22:32.771Z,722.87
2019-05-18T13:24:58.841Z,726.45
2019-05-18T13:27:38.277Z,696.00
2019-05-18T13:29:52.844Z,703.27
2019-05-18T13:32:18.921Z,730.95
2019-05-18T13:34:44.979Z,725.85
2019-05-18T13:37:11.024Z,712.88
2019-05-18T13:39:37.106Z,738.33
2019-05-18T13:42:03.151Z,691.35
2019-05-18T13:44:29.197Z,679.65
2019-05-18T13:46:55.361Z,686.88
2019-05-18T13:49:21.421Z,728.00
2019-05-18T13:51:47.473Z,802.65
2019-05-18T13:54:13.533Z,795.48
2019-05-18T13:56:40.003Z,799.35
2019-05-18T13:59:06.218Z,774.58
2019-05-18T14:01:32.300Z,753.70
2019-05-18T14:03:58.356Z,749.67
2019-05-18T14:06:24.385Z,784.45
2019-05-18T14:08:50.460Z,770.83
2019-05-18T14:11:16.609Z,813.30
2019-05-18T14:13:42.649Z,859.50
2019-05-18T14:16:08.730Z,900.75
2019-05-18T14:18:34.797Z,938.75
2019-05-18T14:21:00.841Z,911.40
2019-05-18T14:23:26.908Z,990.83
2019-05-18T14:25:52.965Z,994.13
2019-05-18T14:28:19.014Z,964.63
2019-05-18T14:30:45.082Z,939.10
2019-05-18T14:33:11.121Z,913.10
2019-05-18T14:35:37.212Z,964.30
2019-05-18T14:38:03.364Z,949.97
2019-05-18T14:40:29.429Z,949.55
2019-05-18T14:42:55.494Z,971.20
2019-05-18T14:45:21.581Z,1005.15
2019-05-18T14:47:47.632Z,983.33
2019-05-18T14:50:15.315Z,959.60
2019-05-18T14:52:41.366Z,920.03
2019-05-18T14:55:07.529Z,846.70
2019-05-18T14:57:33.867Z,849.25
2019-05-18T15:00:02.410Z,841.05
2019-05-18T15:02:27.901Z,814.78
2019-05-18T15:04:56.857Z,901.52
2019-05-18T15:07:22.039Z,923.17
2019-05-18T15:09:48.106Z,1047.77
2019-05-18T15:12:14.164Z,1040.10
2019-05-18T15:14:40.208Z,1069.37
2019-05-18T15:17:06.265Z,1096.10
2019-05-18T15:19:32.338Z,1107.97
2019-05-18T15:21:58.403Z,1149.70
2019-05-18T15:24:24.448Z,1103.23
2019-05-18T15:26:50.601Z,1115.00
2019-05-18T15:29:16.651Z,1118.30
2019-05-18T15:31:42.708Z,1112.07
2019-05-18T15:34:08.786Z,1120.77
2019-05-18T15:36:34.915Z,1104.70
2019-05-18T15:39:00.988Z,1105.53
2019-05-18T15:41:27.166Z,1091.10
2019-05-18T15:43:53.199Z,1047.60
2019-05-18T15:46:19.244Z,1036.97
2019-05-18T15:48:45.343Z,1002.00
2019-05-18T15:51:11.680Z,998.10
2019-05-18T15:53:37.743Z,988.40
2019-05-18T15:56:06.261Z,1012.17
2019-05-18T15:58:31.978Z,1047.27
2019-05-18T16:00:58.033Z,1037.37
2019-05-18T16:03:24.091Z,1057.57
2019-05-18T16:05:50.154Z,1074.87
2019-05-18T16:08:16.206Z,1082.90
2019-05-18T16:10:42.341Z,1083.07
2019-05-18T16:13:08.408Z,1097.37
2019-05-18T16:15:34.460Z,1099.33
2019-05-18T16:18:00.602Z,1097.70
2019-05-18T16:20:26.677Z,1092.33
2019-05-18T16:22:52.732Z,1104.23
2019-05-18T16:25:18.891Z,1105.37
2019-05-18T16:27:45.044Z,1119.83
2019-05-18T16:30:11.720Z,1112.63
2019-05-18T16:32:37.961Z,1136.60
2019-05-18T16:35:07.926Z,1121.03
2019-05-18T16:37:33.981Z,1132.10
2019-05-18T16:40:00.061Z,1113.37
2019-05-18T16:42:26.112Z,1105.60
2019-05-18T16:44:52.161Z,1106.37
2019-05-18T16:47:18.228Z,1108.20
2019-05-18T16:49:44.430Z,1104.33
2019-05-18T16:52:10.564Z,1105.93
2019-05-18T16:54:36.692Z,1111.60
2019-05-18T16:57:03.073Z,1108.27
2019-05-18T16:59:29.140Z,1095.50
2019-05-18T17:01:55.288Z,1078.20
2019-05-18T17:04:21.377Z,1061.77
2019-05-18T17:06:47.594Z,1012.53
2019-05-18T17:09:13.656Z,963.90
2019-05-18T17:11:39.735Z,895.10
2019-05-18T17:14:05.820Z,853.85
2019-05-18T17:16:31.891Z,730.67
2019-05-18T17:18:57.940Z,717.95
2019-05-18T17:21:23.997Z,649.67
2019-05-18T17:23:53.378Z,657.70
2019-05-18T17:26:18.100Z,630.00
2019-05-18T17:28:44.152Z,655.22
2019-05-18T17:31:10.245Z,669.58
2019-05-18T17:33:36.396Z,640.58
2019-05-18T17:36:02.549Z,658.25
2019-05-18T17:38:28.634Z,608.17
2019-05-18T17:40:54.763Z,597.17
2019-05-18T17:43:20.824Z,600.15
2019-05-18T17:45:46.972Z,603.08
2019-05-18T17:48:13.034Z,616.42
2019-05-18T17:50:39.079Z,644.90
2019-05-18T17:53:05.156Z,592.53
2019-05-18T17:55:31.244Z,604.38
2019-05-18T17:57:57.352Z,579.27
2019-05-18T18:00:23.410Z,658.33
2019-05-18T18:02:49.566Z,600.00
2019-05-18T18:05:15.705Z,610.70
2019-05-18T18:07:41.757Z,593.27
2019-05-18T18:10:08.712Z,615.83
2019-05-18T18:12:34.775Z,640.90
2019-05-18T18:15:00.841Z,623.92
2019-05-18T18:17:26.872Z,585.70
2019-05-18T18:19:52.952Z,651.40
2019-05-18T18:22:18.989Z,581.23
2019-05-18T18:24:45.059Z,719.97
2019-05-18T18:27:24.159Z,608.67
2019-05-18T18:29:39.156Z,597.23
2019-05-18T18:32:05.325Z,609.25
2019-05-18T18:34:31.371Z,623.90
2019-05-18T18:36:57.432Z,626.58
2019-05-18T18:39:23.504Z,597.70
2019-05-18T18:41:49.634Z,630.85
2019-05-18T18:44:16.193Z,601.17
2019-05-18T18:46:42.306Z,670.42
2019-05-18T18:49:08.338Z,656.67
2019-05-18T18:51:34.427Z,622.37
2019-05-18T18:54:00.562Z,583.40
2019-05-18T18:56:26.613Z,617.98
2019-05-18T18:58:52.653Z,562.40
2019-05-18T19:01:18.712Z,595.00
2019-05-18T19:03:44.752Z,652.42
2019-05-18T19:06:10.820Z,588.80
2019-05-18T19:08:36.861Z,578.77
2019-05-18T19:11:02.933Z,592.90
2019-05-18T19:13:28.974Z,597.40
2019-05-18T19:15:55.021Z,579.98
2019-05-18T19:18:21.081Z,599.50
2019-05-18T19:20:47.136Z,684.65
2019-05-18T19:23:13.181Z,589.63
2019-05-18T19:25:39.229Z,585.50
2019-05-18T19:28:05.275Z,588.55
2019-05-18T19:30:31.324Z,571.90
2019-05-18T19:32:57.403Z,574.38
2019-05-18T19:35:23.525Z,569.55
2019-05-18T19:37:49.612Z,590.70
2019-05-18T19:40:16.244Z,595.00
2019-05-18T19:42:42.298Z,589.65
2019-05-18T19:45:09.052Z,610.23
2019-05-18T19:47:35.203Z,604.67
2019-05-18T19:50:01.370Z,616.48
2019-05-18T19:52:27.519Z,573.40
2019-05-18T19:54:53.662Z,761.88
2019-05-18T19:57:19.709Z,565.60
2019-05-18T19:59:45.781Z,564.58
2019-05-18T20:02:11.840Z,550.40
2019-05-18T20:04:37.916Z,540.47
2019-05-18T20:07:04.043Z,571.87
2019-05-18T20:09:30.094Z,552.97
2019-05-18T20:11:56.163Z,554.25
2019-05-18T20:14:22.208Z,565.67
2019-05-18T20:16:48.401Z,550.20
2019-05-18T20:19:14.549Z,547.50
2019-05-18T20:21:40.593Z,552.75
2019-05-18T20:24:06.659Z,585.20
2019-05-18T20:26:32.814Z,572.15
2019-05-18T20:28:58.882Z,580.60
2019-05-18T20:31:24.926Z,589.10
2019-05-18T20:33:50.964Z,558.77
2019-05-18T20:36:17.024Z,558.72
2019-05-18T20:38:43.098Z,548.78
2019-05-18T20:41:09.153Z,559.95
2019-05-18T20:43:35.717Z,564.08
2019-05-18T20:46:01.861Z,557.45
2019-05-18T20:48:27.926Z,535.08
2019-05-18T20:50:53.971Z,556.05
2019-05-18T20:53:20.029Z,552.65
2019-05-18T20:55:46.080Z,539.60
2019-05-18T20:58:12.149Z,591.02
2019-05-18T21:00:38.768Z,568.10
2019-05-18T21:03:05.077Z,572.83
2019-05-18T21:05:31.217Z,543.83
2019-05-18T21:07:57.273Z,550.92
2019-05-18T21:10:23.336Z,554.85
2019-05-18T21:12:49.373Z,595.52
2019-05-18T21:15:15.835Z,552.58
2019-05-18T21:17:41.901Z,547.10
2019-05-18T21:20:08.766Z,564.10
2019-05-18T21:22:34.933Z,544.88
2019-05-18T21:25:01.177Z,543.15
2019-05-18T21:27:27.223Z,589.65
2019-05-18T21:29:53.278Z,573.88
2019-05-18T21:32:19.312Z,527.85
2019-05-18T21:34:45.370Z,534.10
2019-05-18T21:37:11.421Z,533.67
2019-05-18T21:39:37.514Z,548.60
2019-05-18T21:42:03.591Z,547.77
2019-05-18T21:44:29.627Z,535.58
2019-05-18T21:46:55.673Z,530.20
2019-05-18T21:49:21.733Z,538.50
2019-05-18T21:51:47.793Z,531.90
2019-05-18T21:54:13.863Z,548.50
2019-05-18T21:56:39.908Z,551.08
2019-05-18T21:59:12.016Z,534.60
2019-05-18T22:01:34.132Z,548.02
2019-05-18T22:04:00.172Z,537.27
2019-05-18T22:06:26.245Z,535.80
2019-05-18T22:08:52.385Z,555.92
2019-05-18T22:11:18.439Z,557.17
2019-05-18T22:13:44.488Z,537.88
2019-05-18T22:16:10.529Z,552.58
2019-05-18T22:18:36.609Z,540.73
2019-05-18T22:21:02.667Z,549.88
2019-05-18T22:23:28.751Z,557.52
2019-05-18T22:25:57.026Z,567.42
2019-05-18T22:28:22.763Z,526.82
2019-05-18T22:30:48.818Z,587.80
2019-05-18T22:33:14.856Z,550.45
2019-05-18T22:35:40.916Z,539.25
2019-05-18T22:38:06.957Z,540.92
2019-05-18T22:40:33.015Z,564.40
2019-05-18T22:42:59.073Z,542.67
2019-05-18T22:45:25.129Z,546.03
2019-05-18T22:47:51.293Z,555.90
2019-05-18T22:50:18.575Z,548.75
2019-05-18T22:52:44.728Z,535.10
2019-05-18T22:55:11.185Z,535.87
2019-05-18T22:57:37.276Z,537.25
2019-05-18T23:00:05.063Z,539.58
2019-05-18T23:02:31.135Z,538.52
2019-05-18T23:04:57.175Z,648.67
2019-05-18T23:07:23.228Z,546.90
2019-05-18T23:09:49.278Z,617.87
2019-05-18T23:12:15.313Z,570.23
2019-05-18T23:14:41.365Z,556.17
2019-05-18T23:17:07.421Z,531.13
2019-05-18T23:19:33.489Z,633.07
2019-05-18T23:21:59.544Z,550.50
2019-05-18T23:24:25.606Z,532.27
2019-05-18T23:26:51.640Z,538.50
2019-05-18T23:29:17.693Z,515.50
2019-05-18T23:31:43.744Z,597.75
2019-05-18T23:34:09.802Z,555.42
2019-05-18T23:36:35.849Z,522.63
2019-05-18T23:39:01.908Z,546.95
2019-05-18T23:41:27.975Z,546.10
2019-05-18T23:43:54.120Z,680.95
2019-05-18T23:46:20.170Z,524.60
2019-05-18T23:48:46.232Z,538.55
2019-05-18T23:51:12.309Z,534.55
2019-05-18T23:53:38.373Z,561.00
2019-05-18T23:56:04.520Z,538.98
2019-05-18T23:58:30.597Z,534.95
